sensor_id;sensor_type;location;lat;lon;timestamp;pressure;altitude;pressure_sealevel;temperature;humidity
77017;BME280;65949;53.132;17.930;2023-04-21T00:00:54;101727.02;;;8.46;64.21
77017;BME280;65949;53.132;17.930;2023-04-21T00:03:22;101726.27;;;8.42;64.16
77017;BME280;65949;53.132;17.930;2023-04-21T00:05:56;101723.68;;;8.36;64.88
77017;BME280;65949;53.132;17.930;2023-04-21T00:08:25;101724.52;;;8.32;64.59
77017;BME280;65949;53.132;17.930;2023-04-21T00:10:52;101724.83;;;8.28;64.73
77017;BME280;65949;53.132;17.930;2023-04-21T00:13:18;101725.57;;;8.26;64.42
77017;BME280;65949;53.132;17.930;2023-04-21T00:15:45;101722.52;;;8.22;64.86
77017;BME280;65949;53.132;17.930;2023-04-21T00:18:12;101724.76;;;8.19;65.07
77017;BME280;65949;53.132;17.930;2023-04-21T00:20:39;101721.63;;;8.14;65.05
77017;BME280;65949;53.132;17.930;2023-04-21T00:23:07;101723.92;;;8.10;64.89
77017;BME280;65949;53.132;17.930;2023-04-21T00:25:36;101721.77;;;8.06;65.12
77017;BME280;65949;53.132;17.930;2023-04-21T00:28:02;101724.61;;;8.02;65.39
77017;BME280;65949;53.132;17.930;2023-04-21T00:30:29;101720.27;;;7.99;64.94
77017;BME280;65949;53.132;17.930;2023-04-21T00:32:57;101719.27;;;7.95;65.30
77017;BME280;65949;53.132;17.930;2023-04-21T00:35:24;101717.00;;;7.93;65.60
77017;BME280;65949;53.132;17.930;2023-04-21T00:37:51;101714.83;;;7.90;65.19
77017;BME280;65949;53.132;17.930;2023-04-21T00:40:18;101714.33;;;7.87;65.44
77017;BME280;65949;53.132;17.930;2023-04-21T00:42:44;101711.45;;;7.84;65.61
77017;BME280;65949;53.132;17.930;2023-04-21T00:45:11;101715.70;;;7.82;65.64
77017;BME280;65949;53.132;17.930;2023-04-21T00:47:41;101713.00;;;7.79;65.73
77017;BME280;65949;53.132;17.930;2023-04-21T00:50:08;101713.25;;;7.77;65.56
77017;BME280;65949;53.132;17.930;2023-04-21T00:52:41;101715.29;;;7.75;65.80
77017;BME280;65949;53.132;17.930;2023-04-21T00:55:09;101719.14;;;7.73;65.63
77017;BME280;65949;53.132;17.930;2023-04-21T00:57:36;101716.16;;;7.71;66.03
77017;BME280;65949;53.132;17.930;2023-04-21T01:00:04;101718.31;;;7.71;65.75
77017;BME280;65949;53.132;17.930;2023-04-21T01:02:34;101713.81;;;7.69;65.83
77017;BME280;65949;53.132;17.930;2023-04-21T01:05:04;101713.65;;;7.70;65.91
77017;BME280;65949;53.132;17.930;2023-04-21T01:07:32;101718.39;;;7.70;65.79
77017;BME280;65949;53.132;17.930;2023-04-21T01:09:59;101714.23;;;7.69;65.88
77017;BME280;65949;53.132;17.930;2023-04-21T01:12:25;101715.86;;;7.67;65.67
77017;BME280;65949;53.132;17.930;2023-04-21T01:14:52;101713.95;;;7.66;65.48
77017;BME280;65949;53.132;17.930;2023-04-21T01:17:19;101712.36;;;7.65;65.93
77017;BME280;65949;53.132;17.930;2023-04-21T01:19:47;101712.05;;;7.63;65.92
77017;BME280;65949;53.132;17.930;2023-04-21T01:22:15;101710.06;;;7.61;65.93
77017;BME280;65949;53.132;17.930;2023-04-21T01:24:45;101708.71;;;7.59;65.98
77017;BME280;65949;53.132;17.930;2023-04-21T01:27:18;101709.71;;;7.56;66.21
77017;BME280;65949;53.132;17.930;2023-04-21T01:29:48;101712.92;;;7.53;66.27
77017;BME280;65949;53.132;17.930;2023-04-21T01:32:17;101716.21;;;7.49;66.22
77017;BME280;65949;53.132;17.930;2023-04-21T01:34:46;101711.32;;;7.45;66.08
77017;BME280;65949;53.132;17.930;2023-04-21T01:44:52;101708.46;;;7.30;66.77
77017;BME280;65949;53.132;17.930;2023-04-21T01:47:19;101707.12;;;7.26;66.70
77017;BME280;65949;53.132;17.930;2023-04-21T01:49:46;101707.06;;;7.22;66.75
77017;BME280;65949;53.132;17.930;2023-04-21T01:52:13;101710.94;;;7.19;66.90
77017;BME280;65949;53.132;17.930;2023-04-21T01:54:40;101711.86;;;7.13;67.09
77017;BME280;65949;53.132;17.930;2023-04-21T01:57:07;101709.29;;;7.08;67.24
77017;BME280;65949;53.132;17.930;2023-04-21T01:59:33;101711.73;;;7.04;67.10
77017;BME280;65949;53.132;17.930;2023-04-21T02:02:02;101711.54;;;7.01;67.28
77017;BME280;65949;53.132;17.930;2023-04-21T02:04:29;101710.71;;;6.96;67.24
77017;BME280;65949;53.132;17.930;2023-04-21T02:06:56;101710.56;;;6.92;67.65
77017;BME280;65949;53.132;17.930;2023-04-21T02:09:22;101709.94;;;6.88;67.50
77017;BME280;65949;53.132;17.930;2023-04-21T02:11:54;101706.90;;;6.85;67.74
77017;BME280;65949;53.132;17.930;2023-04-21T02:14:20;101711.49;;;6.82;67.80
77017;BME280;65949;53.132;17.930;2023-04-21T02:16:47;101712.69;;;6.79;68.20
77017;BME280;65949;53.132;17.930;2023-04-21T02:19:14;101706.67;;;6.75;68.04
77017;BME280;65949;53.132;17.930;2023-04-21T02:21:40;101711.59;;;6.73;68.01
77017;BME280;65949;53.132;17.930;2023-04-21T02:24:07;101711.42;;;6.72;67.81
77017;BME280;65949;53.132;17.930;2023-04-21T02:26:34;101708.83;;;6.70;68.03
77017;BME280;65949;53.132;17.930;2023-04-21T02:29:01;101708.20;;;6.69;68.12
77017;BME280;65949;53.132;17.930;2023-04-21T02:31:28;101707.75;;;6.67;68.17
77017;BME280;65949;53.132;17.930;2023-04-21T02:33:55;101704.21;;;6.65;68.34
77017;BME280;65949;53.132;17.930;2023-04-21T02:36:21;101708.77;;;6.63;68.32
77017;BME280;65949;53.132;17.930;2023-04-21T02:38:48;101710.27;;;6.62;68.09
77017;BME280;65949;53.132;17.930;2023-04-21T02:41:15;101711.11;;;6.61;68.07
77017;BME280;65949;53.132;17.930;2023-04-21T02:43:42;101714.89;;;6.60;68.33
77017;BME280;65949;53.132;17.930;2023-04-21T02:46:08;101711.86;;;6.58;68.40
77017;BME280;65949;53.132;17.930;2023-04-21T02:48:35;101706.41;;;6.55;68.26
77017;BME280;65949;53.132;17.930;2023-04-21T02:51:02;101707.80;;;6.54;68.35
77017;BME280;65949;53.132;17.930;2023-04-21T02:53:30;101707.73;;;6.52;68.46
77017;BME280;65949;53.132;17.930;2023-04-21T02:55:57;101706.09;;;6.50;68.44
77017;BME280;65949;53.132;17.930;2023-04-21T02:58:24;101711.98;;;6.48;68.53
77017;BME280;65949;53.132;17.930;2023-04-21T03:00:50;101713.78;;;6.45;68.57
77017;BME280;65949;53.132;17.930;2023-04-21T03:03:17;101708.97;;;6.41;68.62
77017;BME280;65949;53.132;17.930;2023-04-21T03:05:44;101701.39;;;6.38;68.50
77017;BME280;65949;53.132;17.930;2023-04-21T03:08:10;101700.48;;;6.36;68.65
77017;BME280;65949;53.132;17.930;2023-04-21T03:10:37;101705.73;;;6.33;68.78
77017;BME280;65949;53.132;17.930;2023-04-21T03:13:04;101701.98;;;6.30;68.86
77017;BME280;65949;53.132;17.930;2023-04-21T03:15:31;101709.59;;;6.26;68.92
77017;BME280;65949;53.132;17.930;2023-04-21T03:17:57;101711.90;;;6.23;69.15
77017;BME280;65949;53.132;17.930;2023-04-21T03:20:25;101710.33;;;6.19;69.08
77017;BME280;65949;53.132;17.930;2023-04-21T03:22:52;101706.36;;;6.14;69.03
77017;BME280;65949;53.132;17.930;2023-04-21T03:25:19;101706.78;;;6.08;69.11
77017;BME280;65949;53.132;17.930;2023-04-21T03:27:46;101709.09;;;6.04;69.22
77017;BME280;65949;53.132;17.930;2023-04-21T03:30:12;101707.80;;;5.99;69.56
77017;BME280;65949;53.132;17.930;2023-04-21T03:32:39;101708.23;;;5.94;69.45
77017;BME280;65949;53.132;17.930;2023-04-21T03:35:06;101707.57;;;5.89;69.45
77017;BME280;65949;53.132;17.930;2023-04-21T03:37:34;101708.84;;;5.84;69.60
77017;BME280;65949;53.132;17.930;2023-04-21T03:40:00;101706.34;;;5.81;69.55
77017;BME280;65949;53.132;17.930;2023-04-21T03:42:27;101706.25;;;5.77;69.61
77017;BME280;65949;53.132;17.930;2023-04-21T03:45:00;101703.92;;;5.74;69.58
77017;BME280;65949;53.132;17.930;2023-04-21T03:47:27;101704.95;;;5.71;69.67
77017;BME280;65949;53.132;17.930;2023-04-21T03:49:54;101704.54;;;5.69;69.89
77017;BME280;65949;53.132;17.930;2023-04-21T03:52:21;101704.90;;;5.68;69.89
77017;BME280;65949;53.132;17.930;2023-04-21T03:54:49;101702.15;;;5.67;69.83
77017;BME280;65949;53.132;17.930;2023-04-21T03:57:16;101701.87;;;5.66;69.90
77017;BME280;65949;53.132;17.930;2023-04-21T03:59:42;101698.45;;;5.64;69.80
77017;BME280;65949;53.132;17.930;2023-04-21T04:02:09;101701.44;;;5.64;70.13
77017;BME280;65949;53.132;17.930;2023-04-21T04:04:36;101700.52;;;5.64;70.11
77017;BME280;65949;53.132;17.930;2023-04-21T04:07:02;101701.79;;;5.65;70.01
77017;BME280;65949;53.132;17.930;2023-04-21T04:09:29;101702.88;;;5.67;70.22
77017;BME280;65949;53.132;17.930;2023-04-21T04:11:56;101705.61;;;5.70;70.08
77017;BME280;65949;53.132;17.930;2023-04-21T04:14:22;101706.90;;;5.72;70.31
77017;BME280;65949;53.132;17.930;2023-04-21T04:16:49;101706.52;;;5.75;70.24
77017;BME280;65949;53.132;17.930;2023-04-21T04:19:16;101708.77;;;5.79;70.23
77017;BME280;65949;53.132;17.930;2023-04-21T04:21:42;101709.95;;;5.84;70.26
77017;BME280;65949;53.132;17.930;2023-04-21T04:24:09;101711.67;;;5.89;70.19
77017;BME280;65949;53.132;17.930;2023-04-21T04:26:36;101711.73;;;5.94;70.15
77017;BME280;65949;53.132;17.930;2023-04-21T04:29:06;101706.81;;;6.00;70.39
77017;BME280;65949;53.132;17.930;2023-04-21T04:31:35;101706.34;;;6.06;70.11
77017;BME280;65949;53.132;17.930;2023-04-21T04:34:03;101701.96;;;6.13;70.15
77017;BME280;65949;53.132;17.930;2023-04-21T04:36:30;101702.77;;;6.21;70.14
77017;BME280;65949;53.132;17.930;2023-04-21T04:38:56;101702.98;;;6.30;70.03
77017;BME280;65949;53.132;17.930;2023-04-21T04:41:24;101700.98;;;6.40;69.83
77017;BME280;65949;53.132;17.930;2023-04-21T04:43:51;101702.10;;;6.56;69.54
77017;BME280;65949;53.132;17.930;2023-04-21T04:46:19;101705.50;;;7.21;68.65
77017;BME280;65949;53.132;17.930;2023-04-21T04:48:46;101702.17;;;8.14;67.31
77017;BME280;65949;53.132;17.930;2023-04-21T04:51:12;101699.56;;;8.96;65.42
77017;BME280;65949;53.132;17.930;2023-04-21T04:53:39;101698.33;;;9.49;65.10
77017;BME280;65949;53.132;17.930;2023-04-21T04:56:05;101698.98;;;9.34;65.35
77017;BME280;65949;53.132;17.930;2023-04-21T04:58:32;101694.65;;;9.60;64.70
77017;BME280;65949;53.132;17.930;2023-04-21T05:01:10;101693.49;;;10.41;63.35
77017;BME280;65949;53.132;17.930;2023-04-21T05:03:36;101692.79;;;11.16;61.94
77017;BME280;65949;53.132;17.930;2023-04-21T05:06:04;101694.56;;;11.71;60.91
77017;BME280;65949;53.132;17.930;2023-04-21T05:08:30;101697.79;;;12.17;59.77
77017;BME280;65949;53.132;17.930;2023-04-21T05:10:57;101702.83;;;12.48;58.87
77017;BME280;65949;53.132;17.930;2023-04-21T05:13:24;101696.60;;;12.73;57.62
77017;BME280;65949;53.132;17.930;2023-04-21T05:16:00;101699.41;;;12.72;55.91
77017;BME280;65949;53.132;17.930;2023-04-21T05:18:29;101700.80;;;12.74;55.82
77017;BME280;65949;53.132;17.930;2023-04-21T05:20:56;101698.41;;;12.96;55.18
77017;BME280;65949;53.132;17.930;2023-04-21T05:23:23;101698.13;;;13.10;55.19
77017;BME280;65949;53.132;17.930;2023-04-21T05:25:49;101703.14;;;13.31;54.82
77017;BME280;65949;53.132;17.930;2023-04-21T05:28:16;101701.81;;;13.52;54.28
77017;BME280;65949;53.132;17.930;2023-04-21T05:30:43;101701.05;;;13.73;53.10
77017;BME280;65949;53.132;17.930;2023-04-21T05:33:09;101700.28;;;13.87;52.75
77017;BME280;65949;53.132;17.930;2023-04-21T05:35:36;101695.80;;;13.96;51.60
77017;BME280;65949;53.132;17.930;2023-04-21T05:38:03;101697.30;;;14.05;51.94
77017;BME280;65949;53.132;17.930;2023-04-21T05:40:29;101701.52;;;14.08;50.23
77017;BME280;65949;53.132;17.930;2023-04-21T05:42:56;101703.16;;;14.03;49.85
77017;BME280;65949;53.132;17.930;2023-04-21T05:45:22;101699.70;;;13.96;49.86
77017;BME280;65949;53.132;17.930;2023-04-21T05:47:49;101698.90;;;13.96;49.62
77017;BME280;65949;53.132;17.930;2023-04-21T05:50:15;101698.48;;;13.96;49.32
77017;BME280;65949;53.132;17.930;2023-04-21T05:52:42;101698.44;;;13.91;49.29
77017;BME280;65949;53.132;17.930;2023-04-21T05:55:09;101701.59;;;13.81;49.23
77017;BME280;65949;53.132;17.930;2023-04-21T05:57:35;101697.42;;;13.62;48.91
77017;BME280;65949;53.132;17.930;2023-04-21T06:00:02;101696.53;;;13.43;49.23
77017;BME280;65949;53.132;17.930;2023-04-21T06:02:32;101698.81;;;13.28;49.58
77017;BME280;65949;53.132;17.930;2023-04-21T06:04:58;101698.02;;;13.00;50.05
77017;BME280;65949;53.132;17.930;2023-04-21T06:07:25;101700.97;;;12.75;50.92
77017;BME280;65949;53.132;17.930;2023-04-21T06:09:51;101699.78;;;12.54;51.42
77017;BME280;65949;53.132;17.930;2023-04-21T06:12:18;101700.94;;;12.34;51.66
77017;BME280;65949;53.132;17.930;2023-04-21T06:14:44;101696.96;;;12.11;51.66
77017;BME280;65949;53.132;17.930;2023-04-21T06:17:15;101692.67;;;11.90;52.48
77017;BME280;65949;53.132;17.930;2023-04-21T06:19:42;101689.94;;;11.83;52.87
77017;BME280;65949;53.132;17.930;2023-04-21T06:22:08;101689.09;;;11.79;52.86
77017;BME280;65949;53.132;17.930;2023-04-21T06:24:35;101687.73;;;11.80;53.15
77017;BME280;65949;53.132;17.930;2023-04-21T06:27:01;101685.23;;;11.82;53.06
77017;BME280;65949;53.132;17.930;2023-04-21T06:29:28;101683.98;;;11.83;52.96
77017;BME280;65949;53.132;17.930;2023-04-21T06:31:54;101688.94;;;11.82;53.33
77017;BME280;65949;53.132;17.930;2023-04-21T06:34:21;101686.80;;;11.86;53.21
77017;BME280;65949;53.132;17.930;2023-04-21T06:36:48;101687.85;;;11.92;53.20
77017;BME280;65949;53.132;17.930;2023-04-21T06:39:14;101687.09;;;11.97;52.16
77017;BME280;65949;53.132;17.930;2023-04-21T06:41:41;101688.91;;;11.99;51.98
77017;BME280;65949;53.132;17.930;2023-04-21T06:44:07;101688.02;;;12.05;52.23
77017;BME280;65949;53.132;17.930;2023-04-21T06:46:34;101682.66;;;12.09;52.31
77017;BME280;65949;53.132;17.930;2023-04-21T06:49:01;101680.08;;;12.18;51.91
77017;BME280;65949;53.132;17.930;2023-04-21T06:51:27;101684.80;;;12.29;50.95
77017;BME280;65949;53.132;17.930;2023-04-21T06:53:54;101685.30;;;12.41;50.90
77017;BME280;65949;53.132;17.930;2023-04-21T06:56:20;101686.68;;;12.52;50.01
77017;BME280;65949;53.132;17.930;2023-04-21T06:58:47;101684.50;;;12.61;49.83
77017;BME280;65949;53.132;17.930;2023-04-21T07:01:14;101681.83;;;12.64;49.50
77017;BME280;65949;53.132;17.930;2023-04-21T07:03:40;101680.37;;;12.72;48.93
77017;BME280;65949;53.132;17.930;2023-04-21T07:06:07;101677.09;;;12.80;49.66
77017;BME280;65949;53.132;17.930;2023-04-21T07:08:33;101679.66;;;12.96;49.11
77017;BME280;65949;53.132;17.930;2023-04-21T07:11:00;101675.48;;;13.13;48.88
77017;BME280;65949;53.132;17.930;2023-04-21T07:13:27;101678.84;;;13.30;48.15
77017;BME280;65949;53.132;17.930;2023-04-21T07:15:53;101674.07;;;13.39;47.24
77017;BME280;65949;53.132;17.930;2023-04-21T07:18:20;101673.41;;;13.41;46.77
77017;BME280;65949;53.132;17.930;2023-04-21T07:20:47;101674.59;;;13.49;47.42
77017;BME280;65949;53.132;17.930;2023-04-21T07:23:13;101669.91;;;13.63;47.39
77017;BME280;65949;53.132;17.930;2023-04-21T07:25:40;101671.85;;;13.73;46.76
77017;BME280;65949;53.132;17.930;2023-04-21T07:28:07;101673.95;;;13.84;47.14
77017;BME280;65949;53.132;17.930;2023-04-21T07:30:34;101672.98;;;13.98;46.31
77017;BME280;65949;53.132;17.930;2023-04-21T07:33:01;101667.61;;;14.10;45.90
77017;BME280;65949;53.132;17.930;2023-04-21T07:35:27;101667.76;;;14.15;45.63
77017;BME280;65949;53.132;17.930;2023-04-21T07:37:54;101668.53;;;14.19;44.95
77017;BME280;65949;53.132;17.930;2023-04-21T07:40:21;101665.86;;;14.24;45.18
77017;BME280;65949;53.132;17.930;2023-04-21T07:42:48;101665.83;;;14.34;45.34
77017;BME280;65949;53.132;17.930;2023-04-21T07:45:14;101664.09;;;14.48;45.09
77017;BME280;65949;53.132;17.930;2023-04-21T07:47:41;101660.21;;;14.57;43.84
77017;BME280;65949;53.132;17.930;2023-04-21T07:50:08;101662.27;;;14.59;43.45
77017;BME280;65949;53.132;17.930;2023-04-21T07:52:35;101665.92;;;14.65;43.74
77017;BME280;65949;53.132;17.930;2023-04-21T07:55:02;101658.23;;;14.78;43.48
77017;BME280;65949;53.132;17.930;2023-04-21T07:57:29;101658.89;;;14.85;41.92
77017;BME280;65949;53.132;17.930;2023-04-21T07:59:59;101659.06;;;14.89;41.95
77017;BME280;65949;53.132;17.930;2023-04-21T08:02:25;101650.30;;;14.98;42.53
77017;BME280;65949;53.132;17.930;2023-04-21T08:04:52;101647.45;;;15.10;42.11
77017;BME280;65949;53.132;17.930;2023-04-21T08:07:19;101650.09;;;15.17;41.74
77017;BME280;65949;53.132;17.930;2023-04-21T08:09:45;101647.16;;;15.20;41.35
77017;BME280;65949;53.132;17.930;2023-04-21T08:12:12;101642.52;;;15.17;41.09
77017;BME280;65949;53.132;17.930;2023-04-21T08:14:39;101643.58;;;15.18;40.98
77017;BME280;65949;53.132;17.930;2023-04-21T08:17:06;101642.88;;;15.25;40.32
77017;BME280;65949;53.132;17.930;2023-04-21T08:19:32;101642.64;;;15.35;40.01
77017;BME280;65949;53.132;17.930;2023-04-21T08:21:59;101643.42;;;15.47;40.10
77017;BME280;65949;53.132;17.930;2023-04-21T08:24:26;101643.88;;;15.61;40.14
77017;BME280;65949;53.132;17.930;2023-04-21T08:26:52;101638.31;;;15.70;38.94
77017;BME280;65949;53.132;17.930;2023-04-21T08:29:19;101641.36;;;15.72;38.90
77017;BME280;65949;53.132;17.930;2023-04-21T08:31:46;101641.75;;;15.84;38.35
77017;BME280;65949;53.132;17.930;2023-04-21T08:34:12;101641.21;;;15.88;38.96
77017;BME280;65949;53.132;17.930;2023-04-21T08:36:39;101645.10;;;15.92;39.39
77017;BME280;65949;53.132;17.930;2023-04-21T08:39:08;101639.68;;;16.01;38.91
77017;BME280;65949;53.132;17.930;2023-04-21T08:41:37;101634.10;;;16.12;37.29
77017;BME280;65949;53.132;17.930;2023-04-21T08:44:05;101634.63;;;16.14;36.25
77017;BME280;65949;53.132;17.930;2023-04-21T08:46:32;101633.32;;;16.15;36.19
77017;BME280;65949;53.132;17.930;2023-04-21T08:48:59;101633.05;;;16.12;36.22
77017;BME280;65949;53.132;17.930;2023-04-21T08:51:27;101630.85;;;16.02;36.65
77017;BME280;65949;53.132;17.930;2023-04-21T08:53:53;101631.38;;;16.06;37.13
77017;BME280;65949;53.132;17.930;2023-04-21T08:56:20;101631.10;;;16.13;34.63
77017;BME280;65949;53.132;17.930;2023-04-21T08:58:49;101630.52;;;16.22;34.62
77017;BME280;65949;53.132;17.930;2023-04-21T09:01:16;101630.88;;;16.28;34.60
77017;BME280;65949;53.132;17.930;2023-04-21T09:03:42;101631.46;;;16.40;34.66
77017;BME280;65949;53.132;17.930;2023-04-21T09:06:09;101624.41;;;16.46;34.10
77017;BME280;65949;53.132;17.930;2023-04-21T09:08:41;101623.50;;;16.52;33.13
77017;BME280;65949;53.132;17.930;2023-04-21T09:11:13;101623.17;;;16.54;32.36
77017;BME280;65949;53.132;17.930;2023-04-21T09:13:41;101624.36;;;16.58;33.53
77017;BME280;65949;53.132;17.930;2023-04-21T09:16:17;101622.20;;;16.61;33.56
77017;BME280;65949;53.132;17.930;2023-04-21T09:18:45;101616.07;;;16.66;33.75
77017;BME280;65949;53.132;17.930;2023-04-21T09:21:16;101619.21;;;16.73;33.63
77017;BME280;65949;53.132;17.930;2023-04-21T09:23:47;101614.68;;;16.83;33.59
77017;BME280;65949;53.132;17.930;2023-04-21T09:26:15;101612.16;;;16.94;33.09
77017;BME280;65949;53.132;17.930;2023-04-21T09:28:43;101604.38;;;16.93;32.05
77017;BME280;65949;53.132;17.930;2023-04-21T09:31:15;101605.61;;;16.88;32.46
77017;BME280;65949;53.132;17.930;2023-04-21T09:33:57;101604.63;;;16.83;32.74
77017;BME280;65949;53.132;17.930;2023-04-21T09:36:25;101607.67;;;16.89;32.78
77017;BME280;65949;53.132;17.930;2023-04-21T09:41:20;101608.15;;;16.97;32.23
77017;BME280;65949;53.132;17.930;2023-04-21T09:43:47;101606.87;;;17.02;31.73
77017;BME280;65949;53.132;17.930;2023-04-21T09:46:15;101597.45;;;17.08;32.00
77017;BME280;65949;53.132;17.930;2023-04-21T09:48:43;101595.09;;;17.08;31.67
77017;BME280;65949;53.132;17.930;2023-04-21T09:51:13;101595.52;;;17.06;31.94
77017;BME280;65949;53.132;17.930;2023-04-21T09:53:40;101596.45;;;17.10;32.52
77017;BME280;65949;53.132;17.930;2023-04-21T09:56:13;101597.37;;;17.21;32.61
77017;BME280;65949;53.132;17.930;2023-04-21T09:58:52;101591.94;;;17.32;31.76
77017;BME280;65949;53.132;17.930;2023-04-21T10:01:19;101590.59;;;17.40;32.33
77017;BME280;65949;53.132;17.930;2023-04-21T10:03:47;101591.21;;;17.39;32.33
77017;BME280;65949;53.132;17.930;2023-04-21T10:06:14;101582.83;;;17.38;32.71
77017;BME280;65949;53.132;17.930;2023-04-21T10:08:41;101581.59;;;17.35;31.93
77017;BME280;65949;53.132;17.930;2023-04-21T10:11:09;101581.96;;;17.35;32.76
77017;BME280;65949;53.132;17.930;2023-04-21T10:13:37;101580.99;;;17.40;33.05
77017;BME280;65949;53.132;17.930;2023-04-21T10:16:08;101582.30;;;17.42;33.22
77017;BME280;65949;53.132;17.930;2023-04-21T10:18:36;101580.05;;;17.49;33.35
77017;BME280;65949;53.132;17.930;2023-04-21T10:21:07;101578.36;;;17.47;33.05
77017;BME280;65949;53.132;17.930;2023-04-21T10:26:06;101572.20;;;17.55;33.63
77017;BME280;65949;53.132;17.930;2023-04-21T10:28:55;101566.49;;;17.68;33.08
77017;BME280;65949;53.132;17.930;2023-04-21T10:36:33;101561.58;;;17.77;30.60
77017;BME280;65949;53.132;17.930;2023-04-21T10:39:03;101564.41;;;17.70;30.56
77017;BME280;65949;53.132;17.930;2023-04-21T10:41:31;101560.92;;;17.66;30.86
77017;BME280;65949;53.132;17.930;2023-04-21T10:46:36;101556.19;;;17.77;30.73
77017;BME280;65949;53.132;17.930;2023-04-21T10:54:29;101552.02;;;17.95;30.26
77017;BME280;65949;53.132;17.930;2023-04-21T10:57:05;101548.55;;;18.03;30.68
77017;BME280;65949;53.132;17.930;2023-04-21T10:59:34;101541.44;;;18.07;30.83
77017;BME280;65949;53.132;17.930;2023-04-21T11:02:06;101539.59;;;17.96;30.15
77017;BME280;65949;53.132;17.930;2023-04-21T11:04:33;101528.69;;;17.86;30.08
77017;BME280;65949;53.132;17.930;2023-04-21T11:07:08;101538.75;;;17.87;30.43
77017;BME280;65949;53.132;17.930;2023-04-21T11:09:36;101534.95;;;17.99;30.63
77017;BME280;65949;53.132;17.930;2023-04-21T11:12:06;101531.49;;;18.15;30.71
77017;BME280;65949;53.132;17.930;2023-04-21T11:14:35;101526.70;;;18.23;30.23
77017;BME280;65949;53.132;17.930;2023-04-21T11:17:03;101524.99;;;18.25;29.61
77017;BME280;65949;53.132;17.930;2023-04-21T11:19:31;101532.05;;;18.12;29.87
77017;BME280;65949;53.132;17.930;2023-04-21T11:21:57;101534.46;;;18.08;30.40
77017;BME280;65949;53.132;17.930;2023-04-21T11:24:24;101528.02;;;18.03;30.88
77017;BME280;65949;53.132;17.930;2023-04-21T11:26:51;101522.48;;;17.95;31.15
77017;BME280;65949;53.132;17.930;2023-04-21T11:29:17;101520.20;;;17.99;31.47
77017;BME280;65949;53.132;17.930;2023-04-21T11:31:45;101516.80;;;18.11;31.03
77017;BME280;65949;53.132;17.930;2023-04-21T11:34:19;101508.02;;;18.09;30.89
77017;BME280;65949;53.132;17.930;2023-04-21T11:36:47;101505.85;;;18.10;31.49
77017;BME280;65949;53.132;17.930;2023-04-21T11:39:18;101494.85;;;18.20;31.92
77017;BME280;65949;53.132;17.930;2023-04-21T11:41:47;101499.38;;;18.31;31.33
77017;BME280;65949;53.132;17.930;2023-04-21T11:44:33;101503.20;;;18.35;30.74
77017;BME280;65949;53.132;17.930;2023-04-21T11:47:11;101497.08;;;18.34;31.38
77017;BME280;65949;53.132;17.930;2023-04-21T11:49:51;101496.31;;;18.45;31.77
77017;BME280;65949;53.132;17.930;2023-04-21T11:52:20;101495.60;;;18.52;31.29
77017;BME280;65949;53.132;17.930;2023-04-21T11:54:47;101490.88;;;18.46;31.16
77017;BME280;65949;53.132;17.930;2023-04-21T11:57:17;101494.26;;;18.45;31.67
77017;BME280;65949;53.132;17.930;2023-04-21T11:59:45;101493.66;;;18.51;31.48
77017;BME280;65949;53.132;17.930;2023-04-21T12:02:22;101487.61;;;18.61;31.20
77017;BME280;65949;53.132;17.930;2023-04-21T12:05:02;101485.43;;;18.69;31.58
77017;BME280;65949;53.132;17.930;2023-04-21T12:07:34;101483.07;;;18.79;31.71
77017;BME280;65949;53.132;17.930;2023-04-21T12:10:08;101480.81;;;18.79;31.20
77017;BME280;65949;53.132;17.930;2023-04-21T12:12:39;101477.30;;;18.80;31.21
77017;BME280;65949;53.132;17.930;2023-04-21T12:15:11;101469.91;;;18.80;31.39
77017;BME280;65949;53.132;17.930;2023-04-21T12:17:46;101467.16;;;18.80;31.31
77017;BME280;65949;53.132;17.930;2023-04-21T12:20:17;101464.52;;;18.77;30.66
77017;BME280;65949;53.132;17.930;2023-04-21T12:22:45;101462.09;;;18.76;31.01
77017;BME280;65949;53.132;17.930;2023-04-21T12:25:13;101459.19;;;18.77;30.60
77017;BME280;65949;53.132;17.930;2023-04-21T12:27:58;101458.19;;;18.76;30.24
77017;BME280;65949;53.132;17.930;2023-04-21T12:30:24;101457.19;;;18.80;30.43
77017;BME280;65949;53.132;17.930;2023-04-21T12:32:51;101460.69;;;18.93;31.13
77017;BME280;65949;53.132;17.930;2023-04-21T12:35:19;101453.79;;;19.08;31.63
77017;BME280;65949;53.132;17.930;2023-04-21T12:37:46;101450.86;;;19.22;31.51
77017;BME280;65949;53.132;17.930;2023-04-21T12:40:12;101446.48;;;19.27;31.44
77017;BME280;65949;53.132;17.930;2023-04-21T12:42:39;101440.64;;;19.24;31.01
77017;BME280;65949;53.132;17.930;2023-04-21T12:45:06;101436.21;;;19.07;30.41
77017;BME280;65949;53.132;17.930;2023-04-21T12:47:33;101440.48;;;18.93;30.49
77017;BME280;65949;53.132;17.930;2023-04-21T12:50:00;101441.48;;;18.88;29.99
77017;BME280;65949;53.132;17.930;2023-04-21T12:52:27;101440.03;;;18.85;29.90
77017;BME280;65949;53.132;17.930;2023-04-21T12:54:53;101436.27;;;18.76;29.97
77017;BME280;65949;53.132;17.930;2023-04-21T12:57:20;101433.43;;;18.75;30.47
77017;BME280;65949;53.132;17.930;2023-04-21T12:59:47;101430.61;;;18.76;31.07
77017;BME280;65949;53.132;17.930;2023-04-21T13:02:14;101432.06;;;18.82;31.26
77017;BME280;65949;53.132;17.930;2023-04-21T13:04:41;101432.30;;;18.87;31.37
77017;BME280;65949;53.132;17.930;2023-04-21T13:07:07;101427.90;;;18.94;31.29
77017;BME280;65949;53.132;17.930;2023-04-21T13:09:34;101421.95;;;18.99;31.03
77017;BME280;65949;53.132;17.930;2023-04-21T13:12:01;101420.34;;;19.01;30.94